sensor_id;sensor_type;location;lat;lon;timestamp;P1;durP1;ratioP1;P2;durP2;ratioP2
15506;SDS011;7855;52.210;5.982;2022-10-03T00:02:42;16;;;3;;
15506;SDS011;7855;52.210;5.982;2022-10-03T00:03:57;17;;;3;;
15506;SDS011;7855;52.210;5.982;2022-10-03T00:06:09;24;;;4;;
15506;SDS011;7855;52.210;5.982;2022-10-03T00:08:26;11;;;2;;
15506;SDS011;7855;52.210;5.982;2022-10-03T00:10:38;18;;;4;;
15506;SDS011;7855;52.210;5.982;2022-10-03T00:12:57;17;;;4;;
15506;SDS011;7855;52.210;5.982;2022-10-03T00:15:08;16;;;4;;
15506;SDS011;7855;52.210;5.982;2022-10-03T00:17:20;18;;;4;;
15506;SDS011;7855;52.210;5.982;2022-10-03T00:19:35;15;;;4;;
15506;SDS011;7855;52.210;5.982;2022-10-03T00:21:52;16;;;3;;
15506;SDS011;7855;52.210;5.982;2022-10-03T00:24:06;17;;;3;;
15506;SDS011;7855;52.210;5.982;2022-10-03T00:26:19;28;;;5;;
15506;SDS011;7855;52.210;5.982;2022-10-03T00:28:41;25;;;4;;
15506;SDS011;7855;52.210;5.982;2022-10-03T00:30:49;25;;;4;;
15506;SDS011;7855;52.210;5.982;2022-10-03T00:33:03;17;;;4;;
15506;SDS011;7855;52.210;5.982;2022-10-03T00:35:18;19;;;3;;
15506;SDS011;7855;52.210;5.982;2022-10-03T00:37:29;18;;;5;;
15506;SDS011;7855;52.210;5.982;2022-10-03T00:39:46;17;;;3;;
15506;SDS011;7855;52.210;5.982;2022-10-03T00:46:33;21;;;6;;
15506;SDS011;7855;52.210;5.982;2022-10-03T00:49:03;21;;;4;;
15506;SDS011;7855;52.210;5.982;2022-10-03T00:50:58;18;;;4;;
15506;SDS011;7855;52.210;5.982;2022-10-03T00:53:14;15;;;3;;
15506;SDS011;7855;52.210;5.982;2022-10-03T00:55:27;21;;;4;;
15506;SDS011;7855;52.210;5.982;2022-10-03T00:57:44;16;;;4;;
15506;SDS011;7855;52.210;5.982;2022-10-03T01:00:01;22;;;4;;
15506;SDS011;7855;52.210;5.982;2022-10-03T01:02:16;26;;;4;;
15506;SDS011;7855;52.210;5.982;2022-10-03T01:04:27;15;;;4;;
15506;SDS011;7855;52.210;5.982;2022-10-03T01:06:39;20;;;4;;
15506;SDS011;7855;52.210;5.982;2022-10-03T01:09:02;18;;;3;;
15506;SDS011;7855;52.210;5.982;2022-10-03T01:11:08;29;;;5;;
15506;SDS011;7855;52.210;5.982;2022-10-03T01:13:24;18;;;4;;
15506;SDS011;7855;52.210;5.982;2022-10-03T01:15:37;27;;;4;;
15506;SDS011;7855;52.210;5.982;2022-10-03T01:17:53;16;;;4;;
15506;SDS011;7855;52.210;5.982;2022-10-03T01:20:08;20;;;4;;
15506;SDS011;7855;52.210;5.982;2022-10-03T01:22:23;17;;;5;;
15506;SDS011;7855;52.210;5.982;2022-10-03T01:24:37;16;;;4;;
15506;SDS011;7855;52.210;5.982;2022-10-03T01:26:50;26;;;6;;
15506;SDS011;7855;52.210;5.982;2022-10-03T01:29:02;21;;;5;;
15506;SDS011;7855;52.210;5.982;2022-10-03T01:31:16;19;;;5;;
15506;SDS011;7855;52.210;5.982;2022-10-03T01:33:32;19;;;4;;
15506;SDS011;7855;52.210;5.982;2022-10-03T01:35:46;18;;;4;;
15506;SDS011;7855;52.210;5.982;2022-10-03T01:38:02;15;;;4;;
15506;SDS011;7855;52.210;5.982;2022-10-03T01:40:16;23;;;5;;
15506;SDS011;7855;52.210;5.982;2022-10-03T01:42:30;23;;;4;;
15506;SDS011;7855;52.210;5.982;2022-10-03T01:46:57;17;;;4;;
15506;SDS011;7855;52.210;5.982;2022-10-03T01:49:13;25;;;4;;
15506;SDS011;7855;52.210;5.982;2022-10-03T01:51:26;16;;;4;;
15506;SDS011;7855;52.210;5.982;2022-10-03T01:53:45;18;;;4;;
15506;SDS011;7855;52.210;5.982;2022-10-03T01:56:01;8;;;3;;
15506;SDS011;7855;52.210;5.982;2022-10-03T01:58:10;13;;;4;;
15506;SDS011;7855;52.210;5.982;2022-10-03T02:00:24;17;;;4;;
15506;SDS011;7855;52.210;5.982;2022-10-03T02:02:40;13;;;4;;
15506;SDS011;7855;52.210;5.982;2022-10-03T02:04:55;27;;;5;;
15506;SDS011;7855;52.210;5.982;2022-10-03T02:07:10;16;;;4;;
15506;SDS011;7855;52.210;5.982;2022-10-03T02:09:26;19;;;6;;
15506;SDS011;7855;52.210;5.982;2022-10-03T02:11:37;20;;;5;;
15506;SDS011;7855;52.210;5.982;2022-10-03T02:13:50;23;;;5;;
15506;SDS011;7855;52.210;5.982;2022-10-03T02:16:06;28;;;6;;
15506;SDS011;7855;52.210;5.982;2022-10-03T02:18:22;21;;;6;;
15506;SDS011;7855;52.210;5.982;2022-10-03T02:20:34;12;;;4;;
15506;SDS011;7855;52.210;5.982;2022-10-03T02:22:48;14;;;4;;
15506;SDS011;7855;52.210;5.982;2022-10-03T02:25:05;23;;;5;;
15506;SDS011;7855;52.210;5.982;2022-10-03T02:27:27;14;;;4;;
15506;SDS011;7855;52.210;5.982;2022-10-03T02:29:40;14;;;5;;
15506;SDS011;7855;52.210;5.982;2022-10-03T02:31:51;16;;;4;;
15506;SDS011;7855;52.210;5.982;2022-10-03T02:34:03;30;;;7;;
15506;SDS011;7855;52.210;5.982;2022-10-03T02:36:38;20;;;7;;
15506;SDS011;7855;52.210;5.982;2022-10-03T02:38:33;21;;;6;;
15506;SDS011;7855;52.210;5.982;2022-10-03T02:40:46;17;;;5;;
15506;SDS011;7855;52.210;5.982;2022-10-03T02:43:04;22;;;4;;
15506;SDS011;7855;52.210;5.982;2022-10-03T02:45:17;24;;;6;;
15506;SDS011;7855;52.210;5.982;2022-10-03T02:49:55;22;;;5;;
15506;SDS011;7855;52.210;5.982;2022-10-03T02:51:57;21;;;6;;
15506;SDS011;7855;52.210;5.982;2022-10-03T02:56:30;15;;;5;;
15506;SDS011;7855;52.210;5.982;2022-10-03T02:58:43;22;;;5;;
15506;SDS011;7855;52.210;5.982;2022-10-03T03:05:28;17;;;5;;
15506;SDS011;7855;52.210;5.982;2022-10-03T03:07:48;10;;;4;;
15506;SDS011;7855;52.210;5.982;2022-10-03T03:09:56;21;;;6;;
15506;SDS011;7855;52.210;5.982;2022-10-03T03:12:08;26;;;5;;
15506;SDS011;7855;52.210;5.982;2022-10-03T03:14:26;16;;;6;;
15506;SDS011;7855;52.210;5.982;2022-10-03T03:16:38;23;;;6;;
15506;SDS011;7855;52.210;5.982;2022-10-03T03:18:49;21;;;6;;
15506;SDS011;7855;52.210;5.982;2022-10-03T03:21:06;17;;;5;;
15506;SDS011;7855;52.210;5.982;2022-10-03T03:23:23;14;;;6;;
15506;SDS011;7855;52.210;5.982;2022-10-03T03:25:34;22;;;5;;
15506;SDS011;7855;52.210;5.982;2022-10-03T03:27:48;13;;;4;;
15506;SDS011;7855;52.210;5.982;2022-10-03T03:30:01;12;;;5;;
15506;SDS011;7855;52.210;5.982;2022-10-03T03:32:18;26;;;5;;
15506;SDS011;7855;52.210;5.982;2022-10-03T03:34:32;24;;;5;;
15506;SDS011;7855;52.210;5.982;2022-10-03T03:36:46;12;;;5;;
15506;SDS011;7855;52.210;5.982;2022-10-03T03:39:02;25;;;7;;
15506;SDS011;7855;52.210;5.982;2022-10-03T03:41:18;16;;;6;;
15506;SDS011;7855;52.210;5.982;2022-10-03T03:44:36;19;;;4;;
15506;SDS011;7855;52.210;5.982;2022-10-03T03:46:44;15;;;5;;
15506;SDS011;7855;52.210;5.982;2022-10-03T03:48:58;16;;;5;;
15506;SDS011;7855;52.210;5.982;2022-10-03T03:51:14;27;;;6;;
15506;SDS011;7855;52.210;5.982;2022-10-03T03:53:31;21;;;4;;
15506;SDS011;7855;52.210;5.982;2022-10-03T03:55:43;20;;;5;;
15506;SDS011;7855;52.210;5.982;2022-10-03T03:58:12;14;;;5;;
15506;SDS011;7855;52.210;5.982;2022-10-03T04:00:11;22;;;5;;
15506;SDS011;7855;52.210;5.982;2022-10-03T04:02:26;22;;;5;;
15506;SDS011;7855;52.210;5.982;2022-10-03T04:04:40;21;;;5;;
15506;SDS011;7855;52.210;5.982;2022-10-03T04:06:54;21;;;7;;
15506;SDS011;7855;52.210;5.982;2022-10-03T04:09:13;16;;;5;;
15506;SDS011;7855;52.210;5.982;2022-10-03T04:11:22;22;;;6;;
15506;SDS011;7855;52.210;5.982;2022-10-03T04:13:41;14;;;4;;
15506;SDS011;7855;52.210;5.982;2022-10-03T04:15:52;21;;;5;;
15506;SDS011;7855;52.210;5.982;2022-10-03T04:18:09;15;;;4;;
15506;SDS011;7855;52.210;5.982;2022-10-03T04:20:20;27;;;5;;
15506;SDS011;7855;52.210;5.982;2022-10-03T04:22:39;24;;;6;;
15506;SDS011;7855;52.210;5.982;2022-10-03T04:27:05;24;;;5;;
15506;SDS011;7855;52.210;5.982;2022-10-03T04:29:19;23;;;6;;
15506;SDS011;7855;52.210;5.982;2022-10-03T04:31:32;13;;;6;;
15506;SDS011;7855;52.210;5.982;2022-10-03T04:33:47;16;;;5;;
15506;SDS011;7855;52.210;5.982;2022-10-03T04:36:21;13;;;5;;
15506;SDS011;7855;52.210;5.982;2022-10-03T04:38:14;12;;;5;;
15506;SDS011;7855;52.210;5.982;2022-10-03T04:40:29;24;;;5;;
15506;SDS011;7855;52.210;5.982;2022-10-03T04:42:45;20;;;6;;
15506;SDS011;7855;52.210;5.982;2022-10-03T04:45:00;35;;;8;;
15506;SDS011;7855;52.210;5.982;2022-10-03T04:47:13;26;;;5;;
15506;SDS011;7855;52.210;5.982;2022-10-03T04:49:27;13;;;4;;
15506;SDS011;7855;52.210;5.982;2022-10-03T04:51:41;16;;;6;;
15506;SDS011;7855;52.210;5.982;2022-10-03T04:53:56;18;;;6;;
15506;SDS011;7855;52.210;5.982;2022-10-03T04:56:12;24;;;5;;
15506;SDS011;7855;52.210;5.982;2022-10-03T04:58:26;15;;;4;;
15506;SDS011;7855;52.210;5.982;2022-10-03T05:00:38;19;;;6;;
15506;SDS011;7855;52.210;5.982;2022-10-03T05:02:53;18;;;5;;
15506;SDS011;7855;52.210;5.982;2022-10-03T05:05:10;18;;;6;;
15506;SDS011;7855;52.210;5.982;2022-10-03T05:07:22;19;;;5;;
15506;SDS011;7855;52.210;5.982;2022-10-03T05:09:37;19;;;4;;
15506;SDS011;7855;52.210;5.982;2022-10-03T05:11:54;21;;;4;;
15506;SDS011;7855;52.210;5.982;2022-10-03T05:14:07;14;;;5;;
15506;SDS011;7855;52.210;5.982;2022-10-03T05:16:19;16;;;5;;
15506;SDS011;7855;52.210;5.982;2022-10-03T05:18:33;30;;;5;;
15506;SDS011;7855;52.210;5.982;2022-10-03T05:20:48;12;;;5;;
15506;SDS011;7855;52.210;5.982;2022-10-03T05:23:03;17;;;6;;
15506;SDS011;7855;52.210;5.982;2022-10-03T05:25:20;20;;;5;;
15506;SDS011;7855;52.210;5.982;2022-10-03T05:27:32;15;;;5;;
15506;SDS011;7855;52.210;5.982;2022-10-03T05:29:47;12;;;5;;
15506;SDS011;7855;52.210;5.982;2022-10-03T05:32:05;16;;;6;;
15506;SDS011;7855;52.210;5.982;2022-10-03T05:34:16;29;;;6;;
15506;SDS011;7855;52.210;5.982;2022-10-03T05:36:29;14;;;4;;
15506;SDS011;7855;52.210;5.982;2022-10-03T05:41:00;20;;;5;;
15506;SDS011;7855;52.210;5.982;2022-10-03T05:43:22;21;;;6;;
15506;SDS011;7855;52.210;5.982;2022-10-03T05:45:27;23;;;5;;
15506;SDS011;7855;52.210;5.982;2022-10-03T05:47:42;19;;;5;;
15506;SDS011;7855;52.210;5.982;2022-10-03T05:50:00;20;;;5;;
15506;SDS011;7855;52.210;5.982;2022-10-03T05:52:16;17;;;5;;
15506;SDS011;7855;52.210;5.982;2022-10-03T05:54:30;16;;;5;;
15506;SDS011;7855;52.210;5.982;2022-10-03T05:56:43;21;;;5;;
15506;SDS011;7855;52.210;5.982;2022-10-03T05:58:56;17;;;4;;
15506;SDS011;7855;52.210;5.982;2022-10-03T06:01:19;25;;;6;;
15506;SDS011;7855;52.210;5.982;2022-10-03T06:03:27;24;;;6;;
15506;SDS011;7855;52.210;5.982;2022-10-03T06:05:40;16;;;4;;
15506;SDS011;7855;52.210;5.982;2022-10-03T06:07:56;15;;;5;;
15506;SDS011;7855;52.210;5.982;2022-10-03T06:10:10;19;;;5;;
15506;SDS011;7855;52.210;5.982;2022-10-03T06:12:19;14;;;5;;
15506;SDS011;7855;52.210;5.982;2022-10-03T06:14:40;19;;;4;;
15506;SDS011;7855;52.210;5.982;2022-10-03T06:16:49;18;;;4;;
15506;SDS011;7855;52.210;5.982;2022-10-03T06:19:05;17;;;4;;
15506;SDS011;7855;52.210;5.982;2022-10-03T06:23:36;14;;;4;;
15506;SDS011;7855;52.210;5.982;2022-10-03T06:25:52;15;;;4;;
15506;SDS011;7855;52.210;5.982;2022-10-03T06:28:06;17;;;4;;
15506;SDS011;7855;52.210;5.982;2022-10-03T06:30:18;18;;;5;;
15506;SDS011;7855;52.210;5.982;2022-10-03T06:32:35;12;;;4;;
15506;SDS011;7855;52.210;5.982;2022-10-03T06:34:49;14;;;5;;
15506;SDS011;7855;52.210;5.982;2022-10-03T06:37:01;15;;;5;;
15506;SDS011;7855;52.210;5.982;2022-10-03T06:39:33;15;;;4;;
15506;SDS011;7855;52.210;5.982;2022-10-03T06:43:44;20;;;4;;
15506;SDS011;7855;52.210;5.982;2022-10-03T06:46:02;16;;;4;;
15506;SDS011;7855;52.210;5.982;2022-10-03T06:48:15;23;;;5;;
15506;SDS011;7855;52.210;5.982;2022-10-03T06:50:28;20;;;4;;
15506;SDS011;7855;52.210;5.982;2022-10-03T06:52:43;21;;;5;;
15506;SDS011;7855;52.210;5.982;2022-10-03T06:55:00;17;;;4;;
15506;SDS011;7855;52.210;5.982;2022-10-03T06:57:18;15;;;4;;
15506;SDS011;7855;52.210;5.982;2022-10-03T06:59:27;21;;;5;;
15506;SDS011;7855;52.210;5.982;2022-10-03T07:01:42;20;;;5;;
15506;SDS011;7855;52.210;5.982;2022-10-03T07:06:17;15;;;5;;
15506;SDS011;7855;52.210;5.982;2022-10-03T07:08:26;12;;;4;;
15506;SDS011;7855;52.210;5.982;2022-10-03T07:10:38;13;;;4;;
15506;SDS011;7855;52.210;5.982;2022-10-03T07:12:59;16;;;5;;
15506;SDS011;7855;52.210;5.982;2022-10-03T07:15:07;13;;;4;;
15506;SDS011;7855;52.210;5.982;2022-10-03T07:17:24;16;;;4;;
15506;SDS011;7855;52.210;5.982;2022-10-03T07:19:38;22;;;4;;
15506;SDS011;7855;52.210;5.982;2022-10-03T07:22:11;19;;;5;;
15506;SDS011;7855;52.210;5.982;2022-10-03T07:24:07;13;;;3;;
15506;SDS011;7855;52.210;5.982;2022-10-03T07:28:37;11;;;3;;
15506;SDS011;7855;52.210;5.982;2022-10-03T07:30:47;15;;;4;;
15506;SDS011;7855;52.210;5.982;2022-10-03T07:33:21;18;;;4;;
15506;SDS011;7855;52.210;5.982;2022-10-03T07:35:34;14;;;4;;
15506;SDS011;7855;52.210;5.982;2022-10-03T07:37:32;18;;;3;;
15506;SDS011;7855;52.210;5.982;2022-10-03T07:39:50;21;;;5;;
15506;SDS011;7855;52.210;5.982;2022-10-03T07:41:59;27;;;5;;
15506;SDS011;7855;52.210;5.982;2022-10-03T07:44:18;14;;;4;;
15506;SDS011;7855;52.210;5.982;2022-10-03T07:46:31;14;;;4;;
15506;SDS011;7855;52.210;5.982;2022-10-03T07:48:47;15;;;3;;
15506;SDS011;7855;52.210;5.982;2022-10-03T07:50:56;13;;;3;;
15506;SDS011;7855;52.210;5.982;2022-10-03T07:53:13;11;;;3;;
15506;SDS011;7855;52.210;5.982;2022-10-03T07:55:27;11;;;2;;
15506;SDS011;7855;52.210;5.982;2022-10-03T07:57:42;11;;;2;;
15506;SDS011;7855;52.210;5.982;2022-10-03T07:59:55;11;;;3;;
15506;SDS011;7855;52.210;5.982;2022-10-03T08:02:11;10;;;2;;
15506;SDS011;7855;52.210;5.982;2022-10-03T08:04:27;16;;;2;;
15506;SDS011;7855;52.210;5.982;2022-10-03T08:06:36;15;;;2;;
15506;SDS011;7855;52.210;5.982;2022-10-03T08:13:22;13;;;2;;
15506;SDS011;7855;52.210;5.982;2022-10-03T08:15:37;8;;;2;;
15506;SDS011;7855;52.210;5.982;2022-10-03T08:17:53;15;;;2;;
15506;SDS011;7855;52.210;5.982;2022-10-03T08:20:06;8;;;2;;
15506;SDS011;7855;52.210;5.982;2022-10-03T08:22:18;15;;;1;;
15506;SDS011;7855;52.210;5.982;2022-10-03T08:24:34;8;;;1;;
15506;SDS011;7855;52.210;5.982;2022-10-03T08:29:03;9;;;2;;
15506;SDS011;7855;52.210;5.982;2022-10-03T08:31:17;13;;;2;;
15506;SDS011;7855;52.210;5.982;2022-10-03T08:33:31;15;;;1;;
15506;SDS011;7855;52.210;5.982;2022-10-03T08:35:48;12;;;1;;
15506;SDS011;7855;52.210;5.982;2022-10-03T08:40:18;8;;;1;;
15506;SDS011;7855;52.210;5.982;2022-10-03T08:42:45;14;;;2;;
15506;SDS011;7855;52.210;5.982;2022-10-03T08:46:59;15;;;1;;
15506;SDS011;7855;52.210;5.982;2022-10-03T08:49:12;11;;;1;;
15506;SDS011;7855;52.210;5.982;2022-10-03T08:53:43;8;;;1;;
15506;SDS011;7855;52.210;5.982;2022-10-03T08:55:53;8;;;1;;
15506;SDS011;7855;52.210;5.982;2022-10-03T08:58:15;5;;;0;;
15506;SDS011;7855;52.210;5.982;2022-10-03T09:00:23;11;;;1;;
15506;SDS011;7855;52.210;5.982;2022-10-03T09:02:50;13;;;1;;
15506;SDS011;7855;52.210;5.982;2022-10-03T09:04:56;7;;;1;;
15506;SDS011;7855;52.210;5.982;2022-10-03T09:07:10;13;;;1;;
15506;SDS011;7855;52.210;5.982;2022-10-03T09:09:24;17;;;1;;
15506;SDS011;7855;52.210;5.982;2022-10-03T09:11:37;15;;;1;;
15506;SDS011;7855;52.210;5.982;2022-10-03T09:13:59;10;;;1;;
15506;SDS011;7855;52.210;5.982;2022-10-03T09:16:16;10;;;1;;
15506;SDS011;7855;52.210;5.982;2022-10-03T09:18:23;8;;;1;;
15506;SDS011;7855;52.210;5.982;2022-10-03T09:20:54;9;;;1;;
15506;SDS011;7855;52.210;5.982;2022-10-03T09:22:55;10;;;1;;
15506;SDS011;7855;52.210;5.982;2022-10-03T09:25:04;15;;;3;;
15506;SDS011;7855;52.210;5.982;2022-10-03T09:27:19;13;;;4;;
15506;SDS011;7855;52.210;5.982;2022-10-03T09:29:37;10;;;1;;
15506;SDS011;7855;52.210;5.982;2022-10-03T09:31:52;7;;;1;;
15506;SDS011;7855;52.210;5.982;2022-10-03T09:34:03;7;;;1;;
15506;SDS011;7855;52.210;5.982;2022-10-03T09:36:18;8;;;1;;
15506;SDS011;7855;52.210;5.982;2022-10-03T09:38:33;9;;;1;;
15506;SDS011;7855;52.210;5.982;2022-10-03T09:40:53;7;;;0;;
15506;SDS011;7855;52.210;5.982;2022-10-03T09:43:01;13;;;2;;
15506;SDS011;7855;52.210;5.982;2022-10-03T09:47:37;7;;;1;;
15506;SDS011;7855;52.210;5.982;2022-10-03T09:49:46;12;;;1;;
15506;SDS011;7855;52.210;5.982;2022-10-03T09:51:58;8;;;1;;
15506;SDS011;7855;52.210;5.982;2022-10-03T09:56:31;6;;;0;;
15506;SDS011;7855;52.210;5.982;2022-10-03T09:58:44;7;;;0;;
15506;SDS011;7855;52.210;5.982;2022-10-03T10:01:01;8;;;1;;
15506;SDS011;7855;52.210;5.982;2022-10-03T10:05:30;10;;;1;;
15506;SDS011;7855;52.210;5.982;2022-10-03T10:07:44;7;;;0;;
15506;SDS011;7855;52.210;5.982;2022-10-03T10:09:53;9;;;1;;
15506;SDS011;7855;52.210;5.982;2022-10-03T10:12:12;13;;;1;;
15506;SDS011;7855;52.210;5.982;2022-10-03T10:14:25;8;;;1;;
15506;SDS011;7855;52.210;5.982;2022-10-03T10:16:39;10;;;2;;
15506;SDS011;7855;52.210;5.982;2022-10-03T10:18:57;7;;;1;;
15506;SDS011;7855;52.210;5.982;2022-10-03T10:23:21;13;;;1;;
15506;SDS011;7855;52.210;5.982;2022-10-03T10:25:36;9;;;0;;
15506;SDS011;7855;52.210;5.982;2022-10-03T10:30:07;6;;;0;;
15506;SDS011;7855;52.210;5.982;2022-10-03T10:35:06;7;;;0;;
15506;SDS011;7855;52.210;5.982;2022-10-03T10:37:04;9;;;1;;
15506;SDS011;7855;52.210;5.982;2022-10-03T10:43:32;9;;;1;;
15506;SDS011;7855;52.210;5.982;2022-10-03T10:45:42;8;;;1;;
15506;SDS011;7855;52.210;5.982;2022-10-03T10:48:04;9;;;1;;
15506;SDS011;7855;52.210;5.982;2022-10-03T10:52:30;8;;;0;;
15506;SDS011;7855;52.210;5.982;2022-10-03T10:54:43;6;;;0;;
15506;SDS011;7855;52.210;5.982;2022-10-03T10:57:02;7;;;0;;
15506;SDS011;7855;52.210;5.982;2022-10-03T10:59:20;9;;;0;;
15506;SDS011;7855;52.210;5.982;2022-10-03T11:01:29;8;;;1;;
15506;SDS011;7855;52.210;5.982;2022-10-03T11:03:47;8;;;1;;
15506;SDS011;7855;52.210;5.982;2022-10-03T11:06:03;8;;;0;;
15506;SDS011;7855;52.210;5.982;2022-10-03T11:10:29;10;;;2;;
15506;SDS011;7855;52.210;5.982;2022-10-03T11:13:18;8;;;1;;
15506;SDS011;7855;52.210;5.982;2022-10-03T11:15:11;7;;;1;;
15506;SDS011;7855;52.210;5.982;2022-10-03T11:17:08;7;;;0;;
15506;SDS011;7855;52.210;5.982;2022-10-03T11:19:21;10;;;1;;
15506;SDS011;7855;52.210;5.982;2022-10-03T11:23:50;10;;;0;;
15506;SDS011;7855;52.210;5.982;2022-10-03T11:26:23;14;;;0;;
15506;SDS011;7855;52.210;5.982;2022-10-03T11:35:08;7;;;1;;
15506;SDS011;7855;52.210;5.982;2022-10-03T11:37:23;14;;;1;;
15506;SDS011;7855;52.210;5.982;2022-10-03T11:39:30;5;;;0;;
15506;SDS011;7855;52.210;5.982;2022-10-03T11:41:45;6;;;0;;
15506;SDS011;7855;52.210;5.982;2022-10-03T11:44:04;12;;;1;;
15506;SDS011;7855;52.210;5.982;2022-10-03T11:46:17;8;;;1;;
15506;SDS011;7855;52.210;5.982;2022-10-03T11:48:30;5;;;0;;
15506;SDS011;7855;52.210;5.982;2022-10-03T11:50:42;11;;;1;;
15506;SDS011;7855;52.210;5.982;2022-10-03T11:53:02;15;;;7;;
15506;SDS011;7855;52.210;5.982;2022-10-03T11:55:17;21;;;13;;
15506;SDS011;7855;52.210;5.982;2022-10-03T11:57:26;9;;;1;;
15506;SDS011;7855;52.210;5.982;2022-10-03T11:59:43;7;;;1;;
15506;SDS011;7855;52.210;5.982;2022-10-03T12:01:55;7;;;0;;
15506;SDS011;7855;52.210;5.982;2022-10-03T12:04:08;7;;;0;;
15506;SDS011;7855;52.210;5.982;2022-10-03T12:06:25;12;;;1;;
15506;SDS011;7855;52.210;5.982;2022-10-03T12:08:35;8;;;1;;
15506;SDS011;7855;52.210;5.982;2022-10-03T12:10:53;8;;;1;;
15506;SDS011;7855;52.210;5.982;2022-10-03T12:13:07;8;;;1;;
15506;SDS011;7855;52.210;5.982;2022-10-03T12:15:23;10;;;1;;
15506;SDS011;7855;52.210;5.982;2022-10-03T12:17:34;9;;;1;;
15506;SDS011;7855;52.210;5.982;2022-10-03T12:19:52;10;;;1;;
15506;SDS011;7855;52.210;5.982;2022-10-03T12:22:05;11;;;1;;
15506;SDS011;7855;52.210;5.982;2022-10-03T12:24:19;11;;;1;;
15506;SDS011;7855;52.210;5.982;2022-10-03T12:26:37;8;;;1;;
15506;SDS011;7855;52.210;5.982;2022-10-03T12:28:47;9;;;1;;
15506;SDS011;7855;52.210;5.982;2022-10-03T12:31:01;10;;;1;;
15506;SDS011;7855;52.210;5.982;2022-10-03T12:33:21;9;;;1;;
15506;SDS011;7855;52.210;5.982;2022-10-03T12:35:33;10;;;1;;
15506;SDS011;7855;52.210;5.982;2022-10-03T12:37:45;10;;;4;;
15506;SDS011;7855;52.210;5.982;2022-10-03T12:40:00;14;;;10;;
15506;SDS011;7855;52.210;5.982;2022-10-03T12:42:16;9;;;1;;
15506;SDS011;7855;52.210;5.982;2022-10-03T12:44:30;11;;;1;;
15506;SDS011;7855;52.210;5.982;2022-10-03T12:46:42;6;;;0;;
15506;SDS011;7855;52.210;5.982;2022-10-03T12:48:55;9;;;1;;
15506;SDS011;7855;52.210;5.982;2022-10-03T12:51:13;8;;;1;;
15506;SDS011;7855;52.210;5.982;2022-10-03T12:53:26;5;;;0;;
15506;SDS011;7855;52.210;5.982;2022-10-03T12:55:39;7;;;1;;
15506;SDS011;7855;52.210;5.982;2022-10-03T12:57:53;10;;;1;;
15506;SDS011;7855;52.210;5.982;2022-10-03T13:00:09;9;;;1;;
15506;SDS011;7855;52.210;5.982;2022-10-03T13:02:22;8;;;1;;
15506;SDS011;7855;52.210;5.982;2022-10-03T13:04:37;8;;;1;;
15506;SDS011;7855;52.210;5.982;2022-10-03T13:06:53;7;;;1;;
15506;SDS011;7855;52.210;5.982;2022-10-03T13:09:09;11;;;1;;
15506;SDS011;7855;52.210;5.982;2022-10-03T13:11:22;8;;;1;;
15506;SDS011;7855;52.210;5.982;2022-10-03T13:13:37;10;;;1;;
15506;SDS011;7855;52.210;5.982;2022-10-03T13:15:53;9;;;1;;
15506;SDS011;7855;52.210;5.982;2022-10-03T13:18:03;7;;;0;;
15506;SDS011;7855;52.210;5.982;2022-10-03T13:20:18;5;;;1;;
15506;SDS011;7855;52.210;5.982;2022-10-03T13:22:33;9;;;1;;
15506;SDS011;7855;52.210;5.982;2022-10-03T13:24:47;10;;;1;;
15506;SDS011;7855;52.210;5.982;2022-10-03T13:27:03;8;;;1;;
15506;SDS011;7855;52.210;5.982;2022-10-03T13:29:19;7;;;1;;
15506;SDS011;7855;52.210;5.982;2022-10-03T13:31:30;8;;;1;;
15506;SDS011;7855;52.210;5.982;2022-10-03T13:33:44;14;;;1;;
15506;SDS011;7855;52.210;5.982;2022-10-03T13:35:59;7;;;0;;
15506;SDS011;7855;52.210;5.982;2022-10-03T13:38:16;8;;;1;;
15506;SDS011;7855;52.210;5.982;2022-10-03T13:40:27;9;;;1;;
15506;SDS011;7855;52.210;5.982;2022-10-03T13:42:42;16;;;9;;
15506;SDS011;7855;52.210;5.982;2022-10-03T13:45:00;4;;;1;;
15506;SDS011;7855;52.210;5.982;2022-10-03T13:47:21;10;;;1;;
15506;SDS011;7855;52.210;5.982;2022-10-03T13:49:30;11;;;1;;
15506;SDS011;7855;52.210;5.982;2022-10-03T13:51:44;7;;;1;;
15506;SDS011;7855;52.210;5.982;2022-10-03T13:53:58;6;;;0;;
15506;SDS011;7855;52.210;5.982;2022-10-03T13:56:13;11;;;1;;
15506;SDS011;7855;52.210;5.982;2022-10-03T13:58:31;7;;;1;;
15506;SDS011;7855;52.210;5.982;2022-10-03T14:00:44;7;;;1;;
15506;SDS011;7855;52.210;5.982;2022-10-03T14:02:58;13;;;1;;
15506;SDS011;7855;52.210;5.982;2022-10-03T14:07:26;8;;;1;;
15506;SDS011;7855;52.210;5.982;2022-10-03T14:09:50;7;;;1;;
15506;SDS011;7855;52.210;5.982;2022-10-03T14:11:53;8;;;1;;
15506;SDS011;7855;52.210;5.982;2022-10-03T14:14:13;6;;;1;;
15506;SDS011;7855;52.210;5.982;2022-10-03T14:16:23;8;;;1;;
15506;SDS011;7855;52.210;5.982;2022-10-03T14:18:38;8;;;1;;
15506;SDS011;7855;52.210;5.982;2022-10-03T14:23:09;7;;;1;;
15506;SDS011;7855;52.210;5.982;2022-10-03T14:25:21;10;;;1;;
15506;SDS011;7855;52.210;5.982;2022-10-03T14:27:40;12;;;1;;
15506;SDS011;7855;52.210;5.982;2022-10-03T14:29:52;15;;;1;;
15506;SDS011;7855;52.210;5.982;2022-10-03T14:32:05;12;;;1;;
15506;SDS011;7855;52.210;5.982;2022-10-03T14:34:19;8;;;1;;
15506;SDS011;7855;52.210;5.982;2022-10-03T14:36:33;8;;;1;;
15506;SDS011;7855;52.210;5.982;2022-10-03T14:38:50;11;;;1;;
15506;SDS011;7855;52.210;5.982;2022-10-03T14:41:01;11;;;2;;
15506;SDS011;7855;52.210;5.982;2022-10-03T14:43:20;9;;;1;;
15506;SDS011;7855;52.210;5.982;2022-10-03T14:45:31;10;;;1;;
15506;SDS011;7855;52.210;5.982;2022-10-03T14:47:46;14;;;1;;
15506;SDS011;7855;52.210;5.982;2022-10-03T14:49:58;12;;;1;;
15506;SDS011;7855;52.210;5.982;2022-10-03T14:52:18;16;;;1;;
15506;SDS011;7855;52.210;5.982;2022-10-03T14:54:28;10;;;1;;
15506;SDS011;7855;52.210;5.982;2022-10-03T14:56:42;7;;;1;;
15506;SDS011;7855;52.210;5.982;2022-10-03T14:58:56;9;;;1;;
15506;SDS011;7855;52.210;5.982;2022-10-03T15:01:12;10;;;1;;
15506;SDS011;7855;52.210;5.982;2022-10-03T15:03:27;9;;;1;;
15506;SDS011;7855;52.210;5.982;2022-10-03T15:05:50;11;;;1;;
15506;SDS011;7855;52.210;5.982;2022-10-03T15:07:54;6;;;1;;
15506;SDS011;7855;52.210;5.982;2022-10-03T15:10:08;12;;;1;;
15506;SDS011;7855;52.210;5.982;2022-10-03T15:12:22;8;;;1;;
15506;SDS011;7855;52.210;5.982;2022-10-03T15:14:36;10;;;1;;
15506;SDS011;7855;52.210;5.982;2022-10-03T15:16:52;18;;;2;;
15506;SDS011;7855;52.210;5.982;2022-10-03T15:19:07;11;;;1;;
15506;SDS011;7855;52.210;5.982;2022-10-03T15:21:20;10;;;1;;
15506;SDS011;7855;52.210;5.982;2022-10-03T15:23:36;16;;;2;;
15506;SDS011;7855;52.210;5.982;2022-10-03T15:25:49;6;;;1;;
15506;SDS011;7855;52.210;5.982;2022-10-03T15:28:04;8;;;1;;
15506;SDS011;7855;52.210;5.982;2022-10-03T15:30:19;15;;;2;;
15506;SDS011;7855;52.210;5.982;2022-10-03T15:32:32;10;;;1;;
15506;SDS011;7855;52.210;5.982;2022-10-03T15:34:45;14;;;1;;
15506;SDS011;7855;52.210;5.982;2022-10-03T15:37:03;9;;;1;;
15506;SDS011;7855;52.210;5.982;2022-10-03T15:39:16;8;;;1;;
15506;SDS011;7855;52.210;5.982;2022-10-03T15:41:30;11;;;2;;
15506;SDS011;7855;52.210;5.982;2022-10-03T15:43:44;24;;;3;;
15506;SDS011;7855;52.210;5.982;2022-10-03T15:45:57;8;;;1;;
15506;SDS011;7855;52.210;5.982;2022-10-03T15:48:15;17;;;2;;
15506;SDS011;7855;52.210;5.982;2022-10-03T15:50:27;9;;;2;;
15506;SDS011;7855;52.210;5.982;2022-10-03T15:52:42;10;;;1;;
15506;SDS011;7855;52.210;5.982;2022-10-03T15:54:56;9;;;2;;
15506;SDS011;7855;52.210;5.982;2022-10-03T15:57:12;10;;;1;;
15506;SDS011;7855;52.210;5.982;2022-10-03T15:59:25;14;;;2;;
15506;SDS011;7855;52.210;5.982;2022-10-03T16:01:39;14;;;2;;
15506;SDS011;7855;52.210;5.982;2022-10-03T16:03:54;11;;;2;;
15506;SDS011;7855;52.210;5.982;2022-10-03T16:06:09;9;;;2;;
15506;SDS011;7855;52.210;5.982;2022-10-03T16:08:23;12;;;2;;
15506;SDS011;7855;52.210;5.982;2022-10-03T16:10:37;9;;;1;;
15506;SDS011;7855;52.210;5.982;2022-10-03T16:12:55;13;;;1;;
15506;SDS011;7855;52.210;5.982;2022-10-03T16:15:11;8;;;1;;